createdAt,value
2022-12-29T17:15:38.505Z,10.38
2022-12-29T17:16:40.625Z,10.40
2022-12-29T17:17:49.939Z,8.70
2022-12-29T17:18:52.430Z,8.98
2022-12-29T17:19:59.889Z,7.90
2022-12-29T17:21:03.185Z,8.55
2022-12-29T17:22:18.260Z,6.40
2022-12-29T17:23:26.389Z,5.63
2022-12-29T17:24:29.497Z,5.20
2022-12-29T17:25:37.682Z,5.50
2022-12-29T17:26:39.735Z,6.68
2022-12-29T17:27:52.403Z,6.43
2022-12-29T17:28:54.537Z,6.82
2022-12-29T17:30:00.919Z,6.15
2022-12-29T17:31:07.020Z,5.93
2022-12-29T17:32:14.025Z,5.75
2022-12-29T17:33:18.839Z,6.72
2022-12-29T17:34:21.146Z,6.18
2022-12-29T17:35:23.541Z,6.10
2022-12-29T17:36:26.436Z,6.13
2022-12-29T17:37:37.866Z,6.05
2022-12-29T17:38:40.059Z,5.65
2022-12-29T17:39:42.193Z,5.80
2022-12-29T17:40:45.168Z,5.80
2022-12-29T17:41:47.378Z,6.00
2022-12-29T17:42:52.320Z,7.65
2022-12-29T17:43:54.343Z,10.30
2022-12-29T17:44:56.518Z,8.10
2022-12-29T17:45:59.727Z,7.15
2022-12-29T17:47:02.203Z,9.02
2022-12-29T17:48:13.253Z,13.00
2022-12-29T17:49:18.119Z,9.30
2022-12-29T17:50:23.534Z,8.15
2022-12-29T17:51:28.280Z,7.82
2022-12-29T17:52:30.279Z,8.30
2022-12-29T17:53:32.327Z,15.73
2022-12-29T17:54:34.783Z,8.90
2022-12-29T17:55:38.745Z,9.20
2022-12-29T17:56:42.892Z,7.28
2022-12-29T17:57:45.592Z,9.40
2022-12-29T17:58:48.745Z,8.70
2022-12-29T17:59:50.835Z,10.23
2022-12-29T18:00:55.473Z,11.60
2022-12-29T18:01:58.733Z,13.68
2022-12-29T18:03:01.054Z,16.73
2022-12-29T18:04:03.436Z,17.83
2022-12-29T18:05:13.425Z,21.05
2022-12-29T18:06:15.521Z,28.00
2022-12-29T18:07:20.293Z,28.02
2022-12-29T18:08:22.503Z,23.15
2022-12-29T18:09:24.560Z,20.85
2022-12-29T18:10:29.926Z,22.30
2022-12-29T18:11:32.055Z,23.48
2022-12-29T18:12:40.417Z,24.42
2022-12-29T18:13:46.625Z,24.37
2022-12-29T18:14:49.114Z,26.73
2022-12-29T18:15:52.801Z,25.73
2022-12-29T18:16:56.372Z,24.20
2022-12-29T18:18:06.833Z,25.90
2022-12-29T18:19:09.564Z,22.67
2022-12-29T18:20:11.771Z,23.38
2022-12-29T18:21:22.331Z,20.85
2022-12-29T18:22:25.578Z,18.38
2022-12-29T18:23:36.621Z,17.38
2022-12-29T18:24:38.624Z,16.30
2022-12-29T18:26:00.369Z,16.13
2022-12-29T18:27:11.852Z,14.65
2022-12-29T18:28:13.910Z,13.45
2022-12-29T18:29:16.018Z,14.00
2022-12-29T18:30:18.413Z,12.52
2022-12-29T18:31:27.561Z,12.07
2022-12-29T18:32:29.720Z,14.35
2022-12-29T18:33:31.848Z,11.68
2022-12-29T18:34:34.442Z,10.65
2022-12-29T18:35:46.778Z,9.97
2022-12-29T18:36:48.840Z,9.57
2022-12-29T18:37:50.839Z,9.40
2022-12-29T18:38:54.729Z,9.90
2022-12-29T18:39:57.338Z,9.20
2022-12-29T18:40:59.625Z,8.07
2022-12-29T18:42:02.277Z,8.95
2022-12-29T18:43:04.453Z,9.23
2022-12-29T18:44:12.929Z,8.77
2022-12-29T18:45:23.112Z,9.80
2022-12-29T18:46:25.567Z,8.57
2022-12-29T18:47:27.734Z,9.27
2022-12-29T18:48:29.735Z,8.70
2022-12-29T18:49:31.797Z,9.95
2022-12-29T18:50:33.898Z,11.20
2022-12-29T18:51:35.869Z,13.90
2022-12-29T18:52:37.980Z,13.27
2022-12-29T18:53:40.039Z,15.27
2022-12-29T18:54:43.310Z,14.02
2022-12-29T18:55:45.519Z,14.57
2022-12-29T18:56:47.515Z,12.23
2022-12-29T18:57:50.682Z,10.25
2022-12-29T18:58:53.939Z,15.32
2022-12-29T18:59:56.291Z,17.05
2022-12-29T19:00:58.436Z,13.55
2022-12-29T19:02:00.528Z,12.40
2022-12-29T19:03:02.705Z,13.05
2022-12-29T19:04:05.055Z,14.48
2022-12-29T19:05:23.384Z,26.10
2022-12-29T19:06:25.623Z,20.48
2022-12-29T19:07:27.765Z,14.37
2022-12-29T19:08:29.824Z,13.98
2022-12-29T19:09:32.444Z,18.60
2022-12-29T19:10:34.658Z,17.90
2022-12-29T19:11:36.763Z,19.73
2022-12-29T19:12:38.846Z,14.43
2022-12-29T19:13:41.039Z,15.60
2022-12-29T19:14:43.698Z,22.90
2022-12-29T19:15:46.676Z,16.10
2022-12-29T19:16:49.421Z,9.95
2022-12-29T19:18:16.532Z,8.70
2022-12-29T19:19:16.065Z,12.52
2022-12-29T19:20:27.799Z,22.90
2022-12-29T19:21:31.671Z,13.48
2022-12-29T19:22:33.650Z,11.27
2022-12-29T19:23:35.991Z,14.18
2022-12-29T19:24:37.992Z,12.25
2022-12-29T19:25:40.528Z,17.00
2022-12-29T19:26:43.250Z,12.32
2022-12-29T19:27:45.417Z,11.73
2022-12-29T19:28:47.470Z,10.47
2022-12-29T19:29:50.288Z,10.40
2022-12-29T19:30:57.005Z,10.93
2022-12-29T19:31:59.484Z,10.95
2022-12-29T19:33:09.714Z,9.48
2022-12-29T19:34:15.866Z,9.60
2022-12-29T19:35:18.244Z,9.60
2022-12-29T19:36:24.091Z,9.48
2022-12-29T19:37:26.078Z,12.55
2022-12-29T19:38:29.212Z,11.63
2022-12-29T19:39:31.247Z,11.97
2022-12-29T19:40:33.659Z,10.60
2022-12-29T19:41:36.153Z,9.07
2022-12-29T19:42:38.203Z,9.68
2022-12-29T19:43:40.257Z,9.80
2022-12-29T19:44:43.342Z,8.82
2022-12-29T19:45:45.629Z,9.00
2022-12-29T19:46:48.177Z,12.98
2022-12-29T19:47:50.297Z,12.55
2022-12-29T19:48:53.424Z,9.52
2022-12-29T19:49:55.500Z,9.77
2022-12-29T19:51:04.186Z,10.45
2022-12-29T19:52:06.385Z,10.65
2022-12-29T19:53:08.539Z,10.80
2022-12-29T19:54:10.674Z,9.88
2022-12-29T19:55:16.145Z,8.70
2022-12-29T19:56:18.608Z,9.90
2022-12-29T19:57:22.525Z,11.45
2022-12-29T19:58:24.489Z,12.88
2022-12-29T19:59:26.529Z,11.27
2022-12-29T20:00:28.545Z,13.30
2022-12-29T20:01:30.688Z,11.90
2022-12-29T20:02:34.867Z,12.02
2022-12-29T20:03:38.592Z,15.68
2022-12-29T20:04:40.626Z,18.77
2022-12-29T20:05:47.645Z,12.95
2022-12-29T20:06:49.730Z,13.52
2022-12-29T20:07:51.753Z,9.32
2022-12-29T20:08:55.532Z,8.90
2022-12-29T20:09:57.602Z,8.67
2022-12-29T20:11:13.043Z,9.90
2022-12-29T20:12:16.880Z,9.10
2022-12-29T20:13:18.828Z,9.57
2022-12-29T20:14:21.390Z,8.65
2022-12-29T20:15:23.464Z,8.32
2022-12-29T20:16:25.624Z,8.02
2022-12-29T20:18:10.351Z,8.07
2022-12-29T20:18:49.890Z,9.20
2022-12-29T20:19:55.303Z,10.30
2022-12-29T20:21:15.870Z,11.73
2022-12-29T20:22:17.933Z,13.10
2022-12-29T20:23:20.555Z,11.52
2022-12-29T20:24:22.676Z,10.60
2022-12-29T20:26:48.956Z,14.38
2022-12-29T20:27:51.018Z,17.13
2022-12-29T20:28:54.132Z,16.98
2022-12-29T20:29:56.228Z,13.45
2022-12-29T20:31:01.588Z,13.57
2022-12-29T20:32:04.948Z,12.37
2022-12-29T20:33:08.549Z,12.77
2022-12-29T20:34:12.162Z,12.55
2022-12-29T20:35:15.020Z,12.80
2022-12-29T20:36:22.413Z,13.30
2022-12-29T20:37:24.417Z,12.25
2022-12-29T20:38:26.763Z,13.80
2022-12-29T20:39:28.823Z,14.77
2022-12-29T20:40:31.701Z,13.93
2022-12-29T20:41:33.853Z,23.02
2022-12-29T20:42:35.876Z,13.47
2022-12-29T20:43:37.980Z,14.80
2022-12-29T20:44:40.640Z,16.63
2022-12-29T20:45:43.141Z,17.88
2022-12-29T20:46:45.297Z,19.42
2022-12-29T20:47:47.343Z,22.95
2022-12-29T20:48:50.034Z,30.23
2022-12-29T20:49:52.050Z,28.17
2022-12-29T20:50:54.618Z,27.27
2022-12-29T20:52:11.931Z,26.25
2022-12-29T20:53:14.126Z,24.57
2022-12-29T20:54:17.375Z,22.63
2022-12-29T20:55:19.582Z,20.70
2022-12-29T20:56:24.821Z,22.00
2022-12-29T20:57:26.894Z,27.00
2022-12-29T20:58:28.928Z,33.72
2022-12-29T20:59:31.035Z,42.72
2022-12-29T21:00:33.692Z,32.58
2022-12-29T21:01:37.001Z,36.47
2022-12-29T21:02:40.058Z,36.55
2022-12-29T21:03:42.483Z,18.33
2022-12-29T21:05:22.332Z,24.53
2022-12-29T21:06:10.157Z,29.58
2022-12-29T21:07:18.040Z,25.45
2022-12-29T21:08:23.070Z,17.00
2022-12-29T21:09:25.120Z,14.70
2022-12-29T21:10:27.343Z,13.60
2022-12-29T21:11:29.611Z,14.38
2022-12-29T21:12:31.624Z,18.80
2022-12-29T21:13:33.666Z,16.30
2022-12-29T21:14:38.510Z,34.27
2022-12-29T21:15:44.080Z,22.03
2022-12-29T21:16:47.094Z,16.95
2022-12-29T21:17:49.320Z,13.93
2022-12-29T21:18:51.659Z,17.20
2022-12-29T21:19:53.665Z,16.83
2022-12-29T21:21:00.703Z,15.68
2022-12-29T21:22:02.703Z,14.55
2022-12-29T21:23:04.851Z,13.50
2022-12-29T21:24:07.775Z,14.15
2022-12-29T21:25:13.079Z,12.23
2022-12-29T21:26:18.042Z,13.93
2022-12-29T21:27:20.109Z,16.83
2022-12-29T21:28:23.939Z,16.67
2022-12-29T21:29:26.801Z,16.15
2022-12-29T21:30:28.902Z,13.20
2022-12-29T21:31:35.806Z,22.23
2022-12-29T21:32:37.992Z,20.60
2022-12-29T21:33:40.202Z,22.63
2022-12-29T21:34:42.237Z,14.73
2022-12-29T21:35:44.511Z,13.18
2022-12-29T21:36:46.592Z,17.43
2022-12-29T21:37:48.613Z,17.55
2022-12-29T21:38:50.765Z,17.77
2022-12-29T21:39:52.809Z,17.63
2022-12-29T21:40:54.880Z,18.05
2022-12-29T21:42:00.435Z,22.48
2022-12-29T21:43:03.040Z,17.73
2022-12-29T21:44:23.724Z,17.65
2022-12-29T21:45:25.856Z,20.77
2022-12-29T21:46:27.973Z,21.20
2022-12-29T21:47:52.940Z,24.03
2022-12-29T21:48:55.527Z,27.02
2022-12-29T21:50:00.559Z,29.50
2022-12-29T21:51:30.930Z,28.63
2022-12-29T21:52:33.070Z,27.33
2022-12-29T21:53:43.908Z,29.42
2022-12-29T21:55:01.252Z,32.55
2022-12-29T21:56:04.449Z,30.98
2022-12-29T21:57:07.472Z,37.65
2022-12-29T21:58:28.195Z,38.13
2022-12-29T21:59:51.099Z,29.60
2022-12-29T22:01:13.302Z,29.98
2022-12-29T22:02:45.658Z,28.73
2022-12-29T22:04:06.582Z,21.80
2022-12-29T22:05:32.911Z,27.63
2022-12-29T22:06:53.704Z,32.10
2022-12-29T22:08:14.454Z,29.25
2022-12-29T22:09:39.967Z,26.42
2022-12-29T22:11:06.854Z,27.70
2022-12-29T22:12:27.477Z,34.13
2022-12-29T22:13:32.937Z,25.03
2022-12-29T22:14:34.945Z,26.50
2022-12-29T22:15:37.991Z,40.90
2022-12-29T22:16:40.043Z,40.72
2022-12-29T22:17:53.959Z,42.10
2022-12-29T22:18:56.897Z,41.25
2022-12-29T22:19:59.065Z,39.92
2022-12-29T22:21:06.072Z,41.65
2022-12-29T22:22:08.649Z,38.08
2022-12-29T22:23:10.718Z,36.33
2022-12-29T22:24:12.804Z,29.20
2022-12-29T22:25:15.378Z,27.10
2022-12-29T22:26:17.597Z,29.90
2022-12-29T22:27:19.679Z,42.47
2022-12-29T22:28:21.760Z,29.95
2022-12-29T22:29:23.787Z,29.20
2022-12-29T22:30:27.669Z,32.38
2022-12-29T22:31:32.867Z,41.90
2022-12-29T22:32:35.509Z,40.05
2022-12-29T22:33:38.290Z,37.17
2022-12-29T22:34:40.347Z,38.30
2022-12-29T22:35:42.663Z,35.35
2022-12-29T22:36:44.696Z,34.28
2022-12-29T22:37:46.911Z,34.53
2022-12-29T22:38:49.504Z,37.00
2022-12-29T22:39:52.324Z,31.85
2022-12-29T22:40:59.822Z,30.98
2022-12-29T22:42:01.788Z,29.02
2022-12-29T22:43:08.091Z,30.05
2022-12-29T22:44:14.792Z,28.17
2022-12-29T22:45:17.822Z,28.33
2022-12-29T22:46:19.999Z,32.38
2022-12-29T22:47:22.700Z,30.88
2022-12-29T22:48:24.685Z,31.52
2022-12-29T22:49:26.871Z,36.17
2022-12-29T22:50:28.888Z,29.92
2022-12-29T22:51:30.904Z,29.13
2022-12-29T22:52:32.995Z,34.22
2022-12-29T22:53:35.034Z,34.40
2022-12-29T22:54:40.131Z,40.13
2022-12-29T22:55:42.303Z,36.87
2022-12-29T22:56:44.992Z,37.72
2022-12-29T22:57:47.367Z,37.75
2022-12-29T22:58:49.771Z,36.92
2022-12-29T22:59:51.760Z,45.65
2022-12-29T23:00:54.053Z,44.00
2022-12-29T23:01:56.174Z,38.03
2022-12-29T23:02:58.347Z,37.67
2022-12-29T23:04:27.116Z,37.67
2022-12-29T23:05:22.539Z,49.53
2022-12-29T23:06:24.655Z,44.00
2022-12-29T23:07:26.600Z,38.85
2022-12-29T23:08:32.544Z,40.47
2022-12-29T23:09:35.728Z,32.72
2022-12-29T23:10:37.733Z,31.38
2022-12-29T23:11:39.778Z,29.95
2022-12-29T23:12:41.818Z,35.85
2022-12-29T23:13:45.195Z,35.67
2022-12-29T23:14:47.397Z,32.33
2022-12-29T23:15:50.415Z,36.43
2022-12-29T23:16:52.534Z,34.50
2022-12-29T23:17:54.571Z,32.20
2022-12-29T23:18:56.690Z,31.63
2022-12-29T23:19:59.421Z,31.25
2022-12-29T23:21:01.433Z,31.05
2022-12-29T23:22:03.538Z,30.98
2022-12-29T23:23:05.535Z,31.05
2022-12-29T23:24:11.630Z,30.52
2022-12-29T23:25:13.717Z,29.40
2022-12-29T23:26:16.125Z,29.13
2022-12-29T23:27:18.181Z,28.13
2022-12-29T23:28:20.192Z,21.00
2022-12-29T23:29:22.367Z,22.35
2022-12-29T23:30:24.358Z,20.90
2022-12-29T23:31:28.043Z,18.33
2022-12-29T23:32:30.025Z,19.52
2022-12-29T23:33:32.062Z,21.85
2022-12-29T23:34:36.940Z,21.05
2022-12-29T23:35:38.948Z,20.52
2022-12-29T23:36:41.799Z,18.92
2022-12-29T23:37:43.844Z,13.80
2022-12-29T23:38:48.881Z,15.98
2022-12-29T23:39:51.933Z,14.23
2022-12-29T23:40:53.873Z,21.27
2022-12-29T23:41:56.007Z,23.38
2022-12-29T23:42:58.023Z,22.73
2022-12-29T23:44:00.068Z,19.58
2022-12-29T23:45:02.254Z,19.38
2022-12-29T23:46:09.430Z,17.17
2022-12-29T23:47:11.587Z,17.70
2022-12-29T23:48:13.775Z,19.53
2022-12-29T23:49:15.944Z,22.20
2022-12-29T23:50:18.002Z,30.45
2022-12-29T23:51:20.351Z,31.95
2022-12-29T23:52:22.465Z,36.33
2022-12-29T23:53:24.576Z,37.22
2022-12-29T23:54:26.663Z,37.75
2022-12-29T23:55:29.097Z,38.42
2022-12-29T23:56:31.674Z,34.35
2022-12-29T23:57:35.285Z,36.30
2022-12-29T23:58:39.048Z,37.47
2022-12-29T23:59:41.110Z,37.78
